Terminal Aerodrome Forecast
Issued by NWS

Home | Current Version | Previous Version | Text Only | Print | Product List | Glossary On
Versions: 1 2 3 4 5 6 7 8 9 10 11 12 13
927
FTUS42 KTBW 250522
TAFLAL
TAF
KLAL 250522Z 2506/2606 00000KT P6SM FEW250
     FM251500 32002KT P6SM FEW025 SCT250
     FM252000 26005KT P6SM VCTS SCT030CB SCT050
     FM260000 31006KT P6SM FEW030 SCT050
     FM260300 VRB03KT P6SM FEW050 SCT250
      AMD NOT SKED TIL 251100=

USA.gov is the U.S. government's official web portal to all federal, state and local government web resources and services.